sensor_id;sensor_type;location;lat;lon;timestamp;pressure;altitude;pressure_sealevel;temperature;humidity
54122;BME280;40029;58.708;50.190;2023-04-04T00:00:29;100562.25;;;7.02;41.79
54122;BME280;40029;58.708;50.190;2023-04-04T00:03:00;100559.66;;;7.05;42.02
54122;BME280;40029;58.708;50.190;2023-04-04T00:05:32;100565.69;;;7.04;41.65
54122;BME280;40029;58.708;50.190;2023-04-04T00:08:05;100564.84;;;7.02;41.87
54122;BME280;40029;58.708;50.190;2023-04-04T00:10:59;100562.31;;;6.97;42.08
54122;BME280;40029;58.708;50.190;2023-04-04T00:13:31;100517.69;;;6.72;41.99
54122;BME280;40029;58.708;50.190;2023-04-04T00:16:03;100564.09;;;6.94;41.63
54122;BME280;40029;58.708;50.190;2023-04-04T00:18:34;100565.88;;;6.86;41.94
54122;BME280;40029;58.708;50.190;2023-04-04T00:21:05;100569.34;;;6.85;41.88
54122;BME280;40029;58.708;50.190;2023-04-04T00:23:36;100507.56;;;6.45;41.93
54122;BME280;40029;58.708;50.190;2023-04-04T00:26:08;100571.13;;;6.81;42.27
54122;BME280;40029;58.708;50.190;2023-04-04T00:28:40;100559.13;;;6.69;42.05
54122;BME280;40029;58.708;50.190;2023-04-04T00:31:11;100541.97;;;6.59;42.40
54122;BME280;40029;58.708;50.190;2023-04-04T00:33:42;100535.94;;;6.57;42.52
54122;BME280;40029;58.708;50.190;2023-04-04T00:36:13;100559.09;;;6.71;42.66
54122;BME280;40029;58.708;50.190;2023-04-04T00:38:44;100507.66;;;6.37;42.77
54122;BME280;40029;58.708;50.190;2023-04-04T00:41:34;100530.03;;;6.46;42.96
54122;BME280;40029;58.708;50.190;2023-04-04T00:44:06;100541.97;;;6.58;42.84
54122;BME280;40029;58.708;50.190;2023-04-04T00:46:38;100514.56;;;6.35;41.90
54122;BME280;40029;58.708;50.190;2023-04-04T00:49:27;100525.75;;;6.42;42.62
54122;BME280;40029;58.708;50.190;2023-04-04T00:52:16;100523.25;;;6.30;42.90
54122;BME280;40029;58.708;50.190;2023-04-04T00:54:47;100555.88;;;6.50;43.04
54122;BME280;40029;58.708;50.190;2023-04-04T00:57:19;100533.50;;;6.42;43.37
54122;BME280;40029;58.708;50.190;2023-04-04T00:59:50;100539.50;;;6.45;43.07
54122;BME280;40029;58.708;50.190;2023-04-04T01:06:31;100545.56;;;6.46;42.81
54122;BME280;40029;58.708;50.190;2023-04-04T01:09:02;100525.78;;;6.37;42.87
54122;BME280;40029;58.708;50.190;2023-04-04T01:11:34;100485.50;;;6.06;43.49
54122;BME280;40029;58.708;50.190;2023-04-04T01:14:08;100508.72;;;6.16;43.58
54122;BME280;40029;58.708;50.190;2023-04-04T01:16:40;100485.47;;;6.07;43.41
54122;BME280;40029;58.708;50.190;2023-04-04T01:19:37;100500.94;;;6.16;43.59
54122;BME280;40029;58.708;50.190;2023-04-04T01:22:13;100530.13;;;6.34;43.95
54122;BME280;40029;58.708;50.190;2023-04-04T01:24:48;100534.44;;;6.33;43.87
54122;BME280;40029;58.708;50.190;2023-04-04T01:27:20;100484.66;;;6.04;43.92
54122;BME280;40029;58.708;50.190;2023-04-04T01:29:58;100491.50;;;6.09;43.35
54122;BME280;40029;58.708;50.190;2023-04-04T01:32:36;100477.75;;;6.03;43.67
54122;BME280;40029;58.708;50.190;2023-04-04T01:40:43;100521.56;;;6.25;43.97
54122;BME280;40029;58.708;50.190;2023-04-04T01:43:18;100494.16;;;6.01;44.12
54122;BME280;40029;58.708;50.190;2023-04-04T01:45:49;100525.00;;;6.26;44.02
54122;BME280;40029;58.708;50.190;2023-04-04T01:48:21;100531.00;;;6.31;43.84
54122;BME280;40029;58.708;50.190;2023-04-04T01:50:56;100520.69;;;6.26;43.68
54122;BME280;40029;58.708;50.190;2023-04-04T01:53:30;100496.72;;;6.05;43.84
54122;BME280;40029;58.708;50.190;2023-04-04T01:56:20;100513.84;;;6.19;43.76
54122;BME280;40029;58.708;50.190;2023-04-04T01:58:51;100520.69;;;6.26;43.78
54122;BME280;40029;58.708;50.190;2023-04-04T02:01:23;100470.06;;;5.89;44.12
54122;BME280;40029;58.708;50.190;2023-04-04T02:03:55;100466.69;;;5.82;44.41
54122;BME280;40029;58.708;50.190;2023-04-04T02:06:27;100525.03;;;6.24;44.00
54122;BME280;40029;58.708;50.190;2023-04-04T02:08:59;100507.88;;;6.11;44.64
54122;BME280;40029;58.708;50.190;2023-04-04T02:11:31;100521.63;;;6.15;44.75
54122;BME280;40029;58.708;50.190;2023-04-04T02:14:03;100500.97;;;6.13;44.76
54122;BME280;40029;58.708;50.190;2023-04-04T02:16:54;100461.44;;;5.94;44.57
54122;BME280;40029;58.708;50.190;2023-04-04T02:19:25;100423.66;;;5.73;43.92
54122;BME280;40029;58.708;50.190;2023-04-04T02:22:15;100458.00;;;5.95;44.13
54122;BME280;40029;58.708;50.190;2023-04-04T02:24:46;100464.03;;;5.91;44.31
54122;BME280;40029;58.708;50.190;2023-04-04T02:27:17;100462.34;;;5.86;44.56
54122;BME280;40029;58.708;50.190;2023-04-04T02:29:48;100458.03;;;5.92;44.28
54122;BME280;40029;58.708;50.190;2023-04-04T02:32:19;100497.50;;;6.11;44.34
54122;BME280;40029;58.708;50.190;2023-04-04T02:34:51;100464.03;;;5.93;44.58
54122;BME280;40029;58.708;50.190;2023-04-04T02:37:23;100494.91;;;6.14;44.16
54122;BME280;40029;58.708;50.190;2023-04-04T02:39:56;100460.56;;;5.94;44.18
54122;BME280;40029;58.708;50.190;2023-04-04T02:42:27;100426.25;;;5.73;44.40
54122;BME280;40029;58.708;50.190;2023-04-04T02:45:00;100457.22;;;5.83;44.32
54122;BME280;40029;58.708;50.190;2023-04-04T02:47:33;100484.63;;;6.08;44.46
54122;BME280;40029;58.708;50.190;2023-04-04T02:50:05;100466.63;;;5.96;44.31
54122;BME280;40029;58.708;50.190;2023-04-04T02:52:37;100509.50;;;6.23;44.26
54122;BME280;40029;58.708;50.190;2023-04-04T02:55:13;100460.53;;;6.01;44.51
54122;BME280;40029;58.708;50.190;2023-04-04T02:57:50;100509.47;;;6.28;44.60
54122;BME280;40029;58.708;50.190;2023-04-04T03:00:22;100392.75;;;5.55;44.22
54122;BME280;40029;58.708;50.190;2023-04-04T03:03:11;100519.84;;;6.24;44.74
54122;BME280;40029;58.708;50.190;2023-04-04T03:05:48;100461.44;;;5.94;44.68
54122;BME280;40029;58.708;50.190;2023-04-04T03:08:20;100494.88;;;6.16;44.48
54122;BME280;40029;58.708;50.190;2023-04-04T03:10:51;100464.88;;;5.96;44.50
54122;BME280;40029;58.708;50.190;2023-04-04T03:13:41;100465.69;;;6.01;44.60
54122;BME280;40029;58.708;50.190;2023-04-04T03:16:12;100467.44;;;5.98;44.79
54122;BME280;40029;58.708;50.190;2023-04-04T03:18:54;100514.56;;;6.35;44.57
54122;BME280;40029;58.708;50.190;2023-04-04T03:21:26;100476.84;;;6.07;44.55
54122;BME280;40029;58.708;50.190;2023-04-04T03:24:00;100511.09;;;6.36;44.39
54122;BME280;40029;58.708;50.190;2023-04-04T03:26:31;100460.50;;;6.03;44.38
54122;BME280;40029;58.708;50.190;2023-04-04T03:29:02;100511.13;;;6.35;44.43
54122;BME280;40029;58.708;50.190;2023-04-04T03:31:34;100449.25;;;6.10;44.15
54122;BME280;40029;58.708;50.190;2023-04-04T03:34:05;100500.75;;;6.36;44.28
54122;BME280;40029;58.708;50.190;2023-04-04T03:36:36;100472.47;;;6.18;44.07
54122;BME280;40029;58.708;50.190;2023-04-04T03:39:07;100499.78;;;6.48;44.46
54122;BME280;40029;58.708;50.190;2023-04-04T03:41:39;100461.22;;;6.22;44.12
54122;BME280;40029;58.708;50.190;2023-04-04T03:44:10;100408.84;;;5.97;44.56
54122;BME280;40029;58.708;50.190;2023-04-04T03:46:42;100501.44;;;6.54;44.33
54122;BME280;40029;58.708;50.190;2023-04-04T03:49:16;100467.09;;;6.36;43.97
54122;BME280;40029;58.708;50.190;2023-04-04T03:51:48;100497.94;;;6.61;44.36
54122;BME280;40029;58.708;50.190;2023-04-04T03:54:38;100498.78;;;6.64;43.84
54122;BME280;40029;58.708;50.190;2023-04-04T03:57:28;100461.78;;;6.51;43.66
54122;BME280;40029;58.708;50.190;2023-04-04T03:59:59;100498.66;;;6.76;43.70
54122;BME280;40029;58.708;50.190;2023-04-04T04:02:30;100501.19;;;6.81;43.48
54122;BME280;40029;58.708;50.190;2023-04-04T04:05:02;100445.31;;;6.59;43.62
54122;BME280;40029;58.708;50.190;2023-04-04T04:07:34;100463.44;;;6.60;43.44
54122;BME280;40029;58.708;50.190;2023-04-04T04:10:05;100465.94;;;6.66;43.44
54122;BME280;40029;58.708;50.190;2023-04-04T04:12:37;100479.47;;;6.93;42.96
54122;BME280;40029;58.708;50.190;2023-04-04T04:15:08;100493.19;;;7.01;43.12
54122;BME280;40029;58.708;50.190;2023-04-04T04:17:41;100491.34;;;7.09;43.37
54122;BME280;40029;58.708;50.190;2023-04-04T04:20:13;100477.56;;;7.07;42.74
54122;BME280;40029;58.708;50.190;2023-04-04T04:22:51;100456.13;;;6.94;42.50
54122;BME280;40029;58.708;50.190;2023-04-04T04:25:22;100454.34;;;7.01;42.49
54122;BME280;40029;58.708;50.190;2023-04-04T04:28:03;100493.72;;;7.26;42.36
54122;BME280;40029;58.708;50.190;2023-04-04T04:30:35;100460.16;;;7.18;42.08
54122;BME280;40029;58.708;50.190;2023-04-04T04:33:27;100474.56;;;7.38;41.91
54122;BME280;40029;58.708;50.190;2023-04-04T04:36:06;100448.94;;;7.18;41.79
54122;BME280;40029;58.708;50.190;2023-04-04T04:38:49;100492.41;;;7.61;41.63
54122;BME280;40029;58.708;50.190;2023-04-04T04:41:20;100449.44;;;7.43;41.39
54122;BME280;40029;58.708;50.190;2023-04-04T04:43:54;100468.03;;;7.71;41.16
54122;BME280;40029;58.708;50.190;2023-04-04T04:46:29;100448.22;;;7.67;41.25
54122;BME280;40029;58.708;50.190;2023-04-04T04:49:00;100443.75;;;7.76;40.41
54122;BME280;40029;58.708;50.190;2023-04-04T04:51:34;100490.06;;;8.01;40.29
54122;BME280;40029;58.708;50.190;2023-04-04T04:54:05;100494.16;;;8.14;40.04
54122;BME280;40029;58.708;50.190;2023-04-04T04:56:36;100491.56;;;8.16;40.38
54122;BME280;40029;58.708;50.190;2023-04-04T04:59:13;100444.25;;;8.00;39.93
54122;BME280;40029;58.708;50.190;2023-04-04T05:01:47;100495.25;;;8.54;38.71
54122;BME280;40029;58.708;50.190;2023-04-04T05:04:20;100492.69;;;8.52;39.41
54122;BME280;40029;58.708;50.190;2023-04-04T05:07:04;100489.19;;;8.55;39.26
54122;BME280;40029;58.708;50.190;2023-04-04T05:09:38;100450.47;;;8.41;38.85
54122;BME280;40029;58.708;50.190;2023-04-04T05:12:09;100433.94;;;8.45;38.45
54122;BME280;40029;58.708;50.190;2023-04-04T05:14:45;100484.50;;;8.75;38.82
54122;BME280;40029;58.708;50.190;2023-04-04T05:17:16;100481.63;;;8.89;38.39
54122;BME280;40029;58.708;50.190;2023-04-04T05:19:47;100486.69;;;8.95;37.90
54122;BME280;40029;58.708;50.190;2023-04-04T05:22:23;100430.06;;;8.67;38.33
54122;BME280;40029;58.708;50.190;2023-04-04T05:24:56;100404.34;;;8.55;37.69
54122;BME280;40029;58.708;50.190;2023-04-04T05:27:29;100474.34;;;9.06;37.15
54122;BME280;40029;58.708;50.190;2023-04-04T05:30:05;100431.19;;;8.97;37.27
54122;BME280;40029;58.708;50.190;2023-04-04T05:32:50;100465.22;;;9.27;36.90
54122;BME280;40029;58.708;50.190;2023-04-04T05:35:26;100463.13;;;9.43;37.44
54122;BME280;40029;58.708;50.190;2023-04-04T05:37:59;100379.81;;;9.10;36.29
54122;BME280;40029;58.708;50.190;2023-04-04T05:40:31;100416.25;;;9.47;36.65
54122;BME280;40029;58.708;50.190;2023-04-04T05:43:10;100460.44;;;9.85;36.24
54122;BME280;40029;58.708;50.190;2023-04-04T05:45:54;100426.09;;;9.70;36.21
54122;BME280;40029;58.708;50.190;2023-04-04T05:48:25;100469.59;;;10.01;35.49
54122;BME280;40029;58.708;50.190;2023-04-04T05:50:57;100428.34;;;9.84;35.31
54122;BME280;40029;58.708;50.190;2023-04-04T05:53:40;100465.91;;;10.10;35.24
54122;BME280;40029;58.708;50.190;2023-04-04T05:56:12;100466.63;;;10.16;34.39
54122;BME280;40029;58.708;50.190;2023-04-04T05:58:43;100462.91;;;10.26;33.92
54122;BME280;40029;58.708;50.190;2023-04-04T06:01:18;100454.50;;;10.49;32.95
54122;BME280;40029;58.708;50.190;2023-04-04T06:03:50;100455.06;;;10.28;33.84
54122;BME280;40029;58.708;50.190;2023-04-04T06:06:28;100446.97;;;10.39;33.89
54122;BME280;40029;58.708;50.190;2023-04-04T06:09:00;100443.38;;;10.43;33.48
54122;BME280;40029;58.708;50.190;2023-04-04T06:11:49;100365.19;;;10.12;32.75
54122;BME280;40029;58.708;50.190;2023-04-04T06:14:21;100438.19;;;10.74;32.99
54122;BME280;40029;58.708;50.190;2023-04-04T06:16:52;100402.78;;;10.67;32.82
54122;BME280;40029;58.708;50.190;2023-04-04T06:19:23;100446.09;;;11.02;32.46
54122;BME280;40029;58.708;50.190;2023-04-04T06:21:55;100432.34;;;10.97;32.87
54122;BME280;40029;58.708;50.190;2023-04-04T06:24:27;100398.53;;;10.94;32.41
54122;BME280;40029;58.708;50.190;2023-04-04T06:26:57;100387.03;;;11.01;32.11
54122;BME280;40029;58.708;50.190;2023-04-04T06:29:30;100432.03;;;11.36;31.75
54122;BME280;40029;58.708;50.190;2023-04-04T06:32:04;100375.97;;;11.21;31.45
54122;BME280;40029;58.708;50.190;2023-04-04T06:34:47;100384.16;;;11.37;31.02
54122;BME280;40029;58.708;50.190;2023-04-04T06:37:21;100395.31;;;11.42;30.88
54122;BME280;40029;58.708;50.190;2023-04-04T06:40:12;100426.47;;;11.74;30.36
54122;BME280;40029;58.708;50.190;2023-04-04T06:42:51;100439.69;;;11.98;30.00
54122;BME280;40029;58.708;50.190;2023-04-04T06:45:26;100397.47;;;11.84;30.36
54122;BME280;40029;58.708;50.190;2023-04-04T06:47:58;100436.09;;;12.00;30.43
54122;BME280;40029;58.708;50.190;2023-04-04T06:50:30;100431.72;;;12.01;30.23
54122;BME280;40029;58.708;50.190;2023-04-04T06:53:05;100393.88;;;11.88;29.73
54122;BME280;40029;58.708;50.190;2023-04-04T06:55:36;100410.63;;;12.07;29.78
54122;BME280;40029;58.708;50.190;2023-04-04T06:58:07;100414.88;;;12.10;29.43
54122;BME280;40029;58.708;50.190;2023-04-04T07:00:38;100417.25;;;12.17;29.60
54122;BME280;40029;58.708;50.190;2023-04-04T07:03:09;100408.19;;;12.28;29.50
54122;BME280;40029;58.708;50.190;2023-04-04T07:05:40;100422.31;;;12.47;29.17
54122;BME280;40029;58.708;50.190;2023-04-04T07:08:12;100372.63;;;12.23;29.18
54122;BME280;40029;58.708;50.190;2023-04-04T07:10:43;100371.50;;;12.31;29.03
54122;BME280;40029;58.708;50.190;2023-04-04T07:13:33;100388.41;;;12.45;28.86
54122;BME280;40029;58.708;50.190;2023-04-04T07:16:24;100399.00;;;12.66;28.63
54122;BME280;40029;58.708;50.190;2023-04-04T07:18:55;100401.44;;;12.70;28.52
54122;BME280;40029;58.708;50.190;2023-04-04T07:21:26;100397.81;;;12.74;27.93
54122;BME280;40029;58.708;50.190;2023-04-04T07:23:58;100342.63;;;12.57;28.54
54122;BME280;40029;58.708;50.190;2023-04-04T07:26:29;100357.78;;;12.72;27.89
54122;BME280;40029;58.708;50.190;2023-04-04T07:29:01;100379.47;;;12.98;27.74
54122;BME280;40029;58.708;50.190;2023-04-04T07:31:32;100358.84;;;12.90;27.39
54122;BME280;40029;58.708;50.190;2023-04-04T07:34:03;100374.41;;;13.17;27.52
54122;BME280;40029;58.708;50.190;2023-04-04T07:36:34;100343.66;;;13.00;27.39
54122;BME280;40029;58.708;50.190;2023-04-04T07:39:24;100352.47;;;13.19;27.28
54122;BME280;40029;58.708;50.190;2023-04-04T07:41:56;100341.94;;;13.22;26.69
54122;BME280;40029;58.708;50.190;2023-04-04T07:44:27;100382.47;;;13.56;26.64
54122;BME280;40029;58.708;50.190;2023-04-04T07:46:57;100384.63;;;13.67;26.42
54122;BME280;40029;58.708;50.190;2023-04-04T07:49:28;100346.78;;;13.54;26.57
54122;BME280;40029;58.708;50.190;2023-04-04T07:51:59;100349.63;;;13.69;25.88
54122;BME280;40029;58.708;50.190;2023-04-04T07:54:30;100382.47;;;13.98;25.89
54122;BME280;40029;58.708;50.190;2023-04-04T07:57:01;100382.25;;;14.03;26.17
54122;BME280;40029;58.708;50.190;2023-04-04T07:59:54;100341.47;;;13.97;25.66
54122;BME280;40029;58.708;50.190;2023-04-04T08:02:25;100362.66;;;14.12;25.41
54122;BME280;40029;58.708;50.190;2023-04-04T08:04:56;100329.84;;;14.03;25.48
54122;BME280;40029;58.708;50.190;2023-04-04T08:07:27;100371.59;;;14.47;25.14
54122;BME280;40029;58.708;50.190;2023-04-04T08:09:58;100325.28;;;14.27;24.88
54122;BME280;40029;58.708;50.190;2023-04-04T08:12:29;100363.00;;;14.64;24.70
54122;BME280;40029;58.708;50.190;2023-04-04T08:15:00;100320.63;;;14.54;24.49
54122;BME280;40029;58.708;50.190;2023-04-04T08:17:31;100325.88;;;14.54;24.01
54122;BME280;40029;58.708;50.190;2023-04-04T08:20:03;100318.34;;;14.65;23.73
54122;BME280;40029;58.708;50.190;2023-04-04T08:22:34;100330.91;;;14.78;23.68
54122;BME280;40029;58.708;50.190;2023-04-04T08:25:24;100314.03;;;14.83;23.62
54122;BME280;40029;58.708;50.190;2023-04-04T08:27:55;100361.81;;;15.09;23.58
54122;BME280;40029;58.708;50.190;2023-04-04T08:30:26;100356.44;;;15.29;23.01
54122;BME280;40029;58.708;50.190;2023-04-04T08:32:58;100351.69;;;15.37;22.64
54122;BME280;40029;58.708;50.190;2023-04-04T08:35:28;100363.47;;;15.47;22.49
54122;BME280;40029;58.708;50.190;2023-04-04T08:38:00;100324.53;;;15.38;22.49
54122;BME280;40029;58.708;50.190;2023-04-04T08:40:32;100277.06;;;15.24;21.73
54122;BME280;40029;58.708;50.190;2023-04-04T08:43:04;100356.25;;;15.87;21.78
54122;BME280;40029;58.708;50.190;2023-04-04T08:45:35;100355.50;;;16.03;21.69
54122;BME280;40029;58.708;50.190;2023-04-04T08:48:09;100356.09;;;16.08;21.13
54122;BME280;40029;58.708;50.190;2023-04-04T08:50:41;100354.78;;;16.16;20.70
54122;BME280;40029;58.708;50.190;2023-04-04T08:53:13;100307.31;;;16.02;20.50
54122;BME280;40029;58.708;50.190;2023-04-04T08:55:45;100334.03;;;16.28;20.61
54122;BME280;40029;58.708;50.190;2023-04-04T08:58:17;100354.63;;;16.53;19.91
54122;BME280;40029;58.708;50.190;2023-04-04T09:00:51;100310.63;;;16.39;20.09
54122;BME280;40029;58.708;50.190;2023-04-04T09:03:24;100331.47;;;16.59;19.61
54122;BME280;40029;58.708;50.190;2023-04-04T09:06:01;100349.94;;;16.75;19.56
54122;BME280;40029;58.708;50.190;2023-04-04T09:08:35;100351.22;;;16.84;18.76
54122;BME280;40029;58.708;50.190;2023-04-04T09:11:06;100345.97;;;16.84;18.58
54122;BME280;40029;58.708;50.190;2023-04-04T09:13:37;100350.13;;;16.88;18.67
54122;BME280;40029;58.708;50.190;2023-04-04T09:16:09;100347.72;;;16.99;17.86
54122;BME280;40029;58.708;50.190;2023-04-04T09:18:41;100346.88;;;16.98;17.66
54122;BME280;40029;58.708;50.190;2023-04-04T09:21:12;100351.56;;;17.09;17.34
54122;BME280;40029;58.708;50.190;2023-04-04T09:23:43;100330.66;;;17.06;17.96
54122;BME280;40029;58.708;50.190;2023-04-04T09:26:14;100344.16;;;17.32;17.44
54122;BME280;40029;58.708;50.190;2023-04-04T09:28:51;100308.66;;;17.23;16.68
54122;BME280;40029;58.708;50.190;2023-04-04T09:31:23;100334.59;;;17.45;16.72
54122;BME280;40029;58.708;50.190;2023-04-04T09:33:57;100295.16;;;17.29;17.02
54122;BME280;40029;58.708;50.190;2023-04-04T09:36:28;100343.44;;;17.60;16.42
54122;BME280;40029;58.708;50.190;2023-04-04T09:38:59;100300.19;;;17.48;15.95
54122;BME280;40029;58.708;50.190;2023-04-04T09:41:30;100341.09;;;17.85;15.86
54122;BME280;40029;58.708;50.190;2023-04-04T09:44:01;100329.91;;;17.96;15.77
54122;BME280;40029;58.708;50.190;2023-04-04T09:46:32;100328.41;;;18.06;15.46
54122;BME280;40029;58.708;50.190;2023-04-04T09:49:09;100320.22;;;18.11;15.54
54122;BME280;40029;58.708;50.190;2023-04-04T09:51:41;100297.53;;;18.08;15.60
54122;BME280;40029;58.708;50.190;2023-04-04T09:54:19;100297.72;;;18.19;14.73
54122;BME280;40029;58.708;50.190;2023-04-04T09:56:51;100285.84;;;18.12;14.96
54122;BME280;40029;58.708;50.190;2023-04-04T09:59:23;100326.81;;;18.46;15.20
54122;BME280;40029;58.708;50.190;2023-04-04T10:01:54;100296.69;;;18.36;14.79
54122;BME280;40029;58.708;50.190;2023-04-04T10:04:25;100296.22;;;18.44;14.54
54122;BME280;40029;58.708;50.190;2023-04-04T10:06:58;100293.00;;;18.39;14.28
54122;BME280;40029;58.708;50.190;2023-04-04T10:09:29;100318.63;;;18.51;14.28
54122;BME280;40029;58.708;50.190;2023-04-04T10:12:08;100313.97;;;18.69;14.22
54122;BME280;40029;58.708;50.190;2023-04-04T10:14:39;100316.47;;;18.72;14.63
54122;BME280;40029;58.708;50.190;2023-04-04T10:17:10;100292.53;;;18.61;14.71
54122;BME280;40029;58.708;50.190;2023-04-04T10:19:43;100284.31;;;18.65;14.22
54122;BME280;40029;58.708;50.190;2023-04-04T10:22:15;100305.97;;;18.85;14.09
54122;BME280;40029;58.708;50.190;2023-04-04T10:24:46;100317.19;;;18.88;13.95
54122;BME280;40029;58.708;50.190;2023-04-04T10:27:17;100315.09;;;18.93;14.14
54122;BME280;40029;58.708;50.190;2023-04-04T10:29:48;100248.00;;;18.69;13.98
54122;BME280;40029;58.708;50.190;2023-04-04T10:33:08;100281.78;;;19.05;12.79
54122;BME280;40029;58.708;50.190;2023-04-04T10:35:46;100308.06;;;19.21;13.45
54122;BME280;40029;58.708;50.190;2023-04-04T10:38:25;100274.09;;;18.88;12.41
54122;BME280;40029;58.708;50.190;2023-04-04T10:40:58;100267.56;;;18.93;12.66
54122;BME280;40029;58.708;50.190;2023-04-04T10:43:33;100309.72;;;19.49;11.90
54122;BME280;40029;58.708;50.190;2023-04-04T10:46:14;100272.75;;;19.22;12.74
54122;BME280;40029;58.708;50.190;2023-04-04T10:48:46;100311.94;;;19.42;12.79
54122;BME280;40029;58.708;50.190;2023-04-04T10:51:18;100308.13;;;19.46;12.41
54122;BME280;40029;58.708;50.190;2023-04-04T10:53:51;100228.78;;;19.08;12.24
54122;BME280;40029;58.708;50.190;2023-04-04T10:56:23;100307.31;;;19.59;12.10
54122;BME280;40029;58.708;50.190;2023-04-04T10:59:14;100287.69;;;19.63;11.45
54122;BME280;40029;58.708;50.190;2023-04-04T11:01:53;100304.72;;;19.71;11.78
54122;BME280;40029;58.708;50.190;2023-04-04T11:04:30;100306.84;;;19.79;11.00
54122;BME280;40029;58.708;50.190;2023-04-04T11:07:09;100301.84;;;19.75;11.05
54122;BME280;40029;58.708;50.190;2023-04-04T11:09:51;100224.56;;;19.18;10.67
54122;BME280;40029;58.708;50.190;2023-04-04T11:12:32;100264.16;;;19.45;10.39
54122;BME280;40029;58.708;50.190;2023-04-04T11:15:07;100259.44;;;19.23;11.30
54122;BME280;40029;58.708;50.190;2023-04-04T11:17:56;100300.19;;;19.46;11.05
54122;BME280;40029;58.708;50.190;2023-04-04T11:20:30;100299.91;;;19.51;11.58
54122;BME280;40029;58.708;50.190;2023-04-04T11:25:39;100278.88;;;19.62;11.60
54122;BME280;40029;58.708;50.190;2023-04-04T11:28:14;100303.03;;;19.83;11.17
54122;BME280;40029;58.708;50.190;2023-04-04T11:34:05;100277.19;;;19.21;10.22
54122;BME280;40029;58.708;50.190;2023-04-04T11:39:28;100271.63;;;18.99;10.57
54122;BME280;40029;58.708;50.190;2023-04-04T11:42:03;100267.31;;;19.11;10.80
54122;BME280;40029;58.708;50.190;2023-04-04T11:47:22;100277.66;;;19.41;11.23
54122;BME280;40029;58.708;50.190;2023-04-04T11:49:55;100315.84;;;19.77;11.03
54122;BME280;40029;58.708;50.190;2023-04-04T11:52:31;100313.44;;;19.59;9.88
54122;BME280;40029;58.708;50.190;2023-04-04T11:55:16;100289.41;;;19.89;10.39
54122;BME280;40029;58.708;50.190;2023-04-04T11:57:48;100307.13;;;20.77;10.02
54122;BME280;40029;58.708;50.190;2023-04-04T12:00:47;100301.63;;;21.28;9.21
54122;BME280;40029;58.708;50.190;2023-04-04T12:03:18;100298.16;;;21.51;9.21
54122;BME280;40029;58.708;50.190;2023-04-04T12:05:50;100301.25;;;21.80;9.16
54122;BME280;40029;58.708;50.190;2023-04-04T12:08:39;100256.78;;;22.51;8.73
54122;BME280;40029;58.708;50.190;2023-04-04T12:11:14;100261.19;;;23.07;7.73
54122;BME280;40029;58.708;50.190;2023-04-04T12:14:04;100286.84;;;23.91;7.29
54122;BME280;40029;58.708;50.190;2023-04-04T12:16:35;100252.66;;;23.87;6.56
54122;BME280;40029;58.708;50.190;2023-04-04T12:19:26;100276.97;;;24.34;6.77
54122;BME280;40029;58.708;50.190;2023-04-04T12:21:58;100278.75;;;23.93;6.69
54122;BME280;40029;58.708;50.190;2023-04-04T12:24:29;100271.38;;;23.97;6.39
54122;BME280;40029;58.708;50.190;2023-04-04T12:27:00;100249.91;;;24.29;6.37
54122;BME280;40029;58.708;50.190;2023-04-04T12:29:33;100288.41;;;24.15;6.24
54122;BME280;40029;58.708;50.190;2023-04-04T12:32:07;100262.25;;;23.99;5.89
54122;BME280;40029;58.708;50.190;2023-04-04T12:34:41;100287.56;;;24.45;5.95
54122;BME280;40029;58.708;50.190;2023-04-04T12:37:13;100296.16;;;24.58;5.83
54122;BME280;40029;58.708;50.190;2023-04-04T12:39:46;100243.44;;;24.52;5.55
54122;BME280;40029;58.708;50.190;2023-04-04T12:42:23;100244.78;;;24.87;5.48
54122;BME280;40029;58.708;50.190;2023-04-04T12:45:12;100277.38;;;25.39;5.83
54122;BME280;40029;58.708;50.190;2023-04-04T12:47:56;100254.94;;;25.32;4.97
54122;BME280;40029;58.708;50.190;2023-04-04T12:50:28;100294.19;;;25.68;5.37
54122;BME280;40029;58.708;50.190;2023-04-04T12:52:59;100289.59;;;25.80;6.08
54122;BME280;40029;58.708;50.190;2023-04-04T12:55:30;100291.38;;;25.89;5.71
54122;BME280;40029;58.708;50.190;2023-04-04T12:58:02;100286.00;;;26.09;5.78
54122;BME280;40029;58.708;50.190;2023-04-04T13:00:33;100226.38;;;25.52;5.70
54122;BME280;40029;58.708;50.190;2023-04-04T13:03:25;100284.34;;;25.69;5.36
54122;BME280;40029;58.708;50.190;2023-04-04T13:05:57;100281.56;;;25.71;5.29
54122;BME280;40029;58.708;50.190;2023-04-04T13:08:51;100258.69;;;25.39;5.17
54122;BME280;40029;58.708;50.190;2023-04-04T13:11:23;100266.28;;;25.34;5.38
54122;BME280;40029;58.708;50.190;2023-04-04T13:14:01;100286.06;;;25.60;4.77
54122;BME280;40029;58.708;50.190;2023-04-04T13:17:04;100222.59;;;24.96;4.72
54122;BME280;40029;58.708;50.190;2023-04-04T13:19:35;100290.56;;;25.11;5.63
54122;BME280;40029;58.708;50.190;2023-04-04T13:22:07;100297.59;;;25.12;5.66
54122;BME280;40029;58.708;50.190;2023-04-04T13:24:38;100296.59;;;25.13;5.41
54122;BME280;40029;58.708;50.190;2023-04-04T13:27:10;100289.97;;;24.98;5.73
54122;BME280;40029;58.708;50.190;2023-04-04T13:29:41;100244.25;;;24.43;5.99
54122;BME280;40029;58.708;50.190;2023-04-04T13:32:12;100297.97;;;24.48;6.35
54122;BME280;40029;58.708;50.190;2023-04-04T13:35:01;100280.63;;;24.33;6.34
54122;BME280;40029;58.708;50.190;2023-04-04T13:37:34;100253.31;;;24.00;6.72
54122;BME280;40029;58.708;50.190;2023-04-04T13:40:05;100252.44;;;24.00;7.50
54122;BME280;40029;58.708;50.190;2023-04-04T13:42:36;100282.31;;;24.03;7.37
54122;BME280;40029;58.708;50.190;2023-04-04T13:45:08;100285.72;;;23.84;7.18